createdAt,value
2019-03-06T00:00:09.462Z,1002.14
2019-03-06T00:01:09.458Z,1002.17
2019-03-06T00:02:09.535Z,1002.18
2019-03-06T00:03:09.636Z,1002.16
2019-03-06T00:04:09.309Z,1002.20
2019-03-06T00:05:09.613Z,1002.21
2019-03-06T00:06:16.428Z,1002.21
2019-03-06T00:07:09.590Z,1002.22
2019-03-06T00:08:09.225Z,1002.23
2019-03-06T00:09:09.130Z,1002.22
2019-03-06T00:10:09.177Z,1002.22
2019-03-06T00:11:09.078Z,1002.22
2019-03-06T00:12:09.352Z,1002.18
2019-03-06T00:13:09.036Z,1002.17
2019-03-06T00:14:08.999Z,1002.18
2019-03-06T00:16:09.073Z,1002.18
2019-03-06T00:17:08.915Z,1002.13
2019-03-06T00:18:09.030Z,1002.17
2019-03-06T00:19:09.190Z,1002.13
2019-03-06T00:20:08.883Z,1002.15
2019-03-06T00:21:09.174Z,1002.10
2019-03-06T00:22:08.863Z,1002.10
2019-03-06T00:23:08.899Z,1002.13
2019-03-06T00:24:08.867Z,1002.11
2019-03-06T00:25:09.140Z,1002.12
2019-03-06T00:26:08.843Z,1002.11
2019-03-06T00:27:08.672Z,1002.14
2019-03-06T00:28:08.803Z,1002.11
2019-03-06T00:29:08.700Z,1002.10
2019-03-06T00:30:08.699Z,1002.18
2019-03-06T00:31:08.857Z,1002.14
2019-03-06T00:32:08.624Z,1002.14
2019-03-06T00:33:08.556Z,1002.11
2019-03-06T00:34:08.639Z,1002.19
2019-03-06T00:35:08.522Z,1002.17
2019-03-06T00:36:08.429Z,1002.20
2019-03-06T00:37:08.796Z,1002.19
2019-03-06T00:38:08.401Z,1002.20
2019-03-06T00:39:08.473Z,1002.18
2019-03-06T00:40:08.411Z,1002.19
2019-03-06T00:41:08.468Z,1002.24
2019-03-06T00:42:08.467Z,1002.27
2019-03-06T00:43:08.675Z,1002.23
2019-03-06T00:44:08.285Z,1002.20
2019-03-06T00:46:08.218Z,1002.15
2019-03-06T00:47:08.289Z,1002.17
2019-03-06T00:48:08.113Z,1002.13
2019-03-06T00:49:08.437Z,1002.13
2019-03-06T00:50:08.155Z,1002.09
2019-03-06T00:51:08.032Z,1002.09
2019-03-06T00:52:08.132Z,1002.05
2019-03-06T00:53:08.260Z,1002.06
2019-03-06T00:54:08.233Z,1002.11
2019-03-06T00:56:08.080Z,1002.17
2019-03-06T00:57:07.980Z,1002.18
2019-03-06T00:58:08.065Z,1002.13
2019-03-06T00:59:07.970Z,1002.12
2019-03-06T01:00:07.911Z,1002.16
2019-03-06T01:01:07.945Z,1002.15
2019-03-06T01:02:08.260Z,1002.13
2019-03-06T01:03:07.852Z,1002.16
2019-03-06T01:04:07.967Z,1002.18
2019-03-06T01:05:07.882Z,1002.16
2019-03-06T01:07:07.749Z,1002.20
2019-03-06T01:08:07.763Z,1002.20
2019-03-06T01:09:07.880Z,1002.20
2019-03-06T01:10:07.653Z,1002.21
2019-03-06T01:11:07.620Z,1002.18
2019-03-06T01:12:07.561Z,1002.22
2019-03-06T01:13:07.470Z,1002.23
2019-03-06T01:14:07.456Z,1002.22
2019-03-06T01:15:07.421Z,1002.23
2019-03-06T01:16:07.669Z,1002.29
2019-03-06T01:17:07.345Z,1002.28
2019-03-06T01:18:07.321Z,1002.27
2019-03-06T01:19:07.289Z,1002.29
2019-03-06T01:20:07.336Z,1002.28
2019-03-06T01:21:07.309Z,1002.32
2019-03-06T01:22:07.298Z,1002.37
2019-03-06T01:23:07.537Z,1002.35
2019-03-06T01:24:07.245Z,1002.38
2019-03-06T01:25:07.220Z,1002.39
2019-03-06T01:26:07.113Z,1002.40
2019-03-06T01:27:07.095Z,1002.38
2019-03-06T01:28:07.183Z,1002.34
2019-03-06T01:29:07.032Z,1002.41
2019-03-06T01:30:07.305Z,1002.44
2019-03-06T01:31:06.975Z,1002.43
2019-03-06T01:32:07.058Z,1002.41
2019-03-06T01:33:06.951Z,1002.43
2019-03-06T01:34:06.976Z,1002.41
2019-03-06T01:35:06.883Z,1002.37
2019-03-06T01:36:06.874Z,1002.37
2019-03-06T01:37:07.120Z,1002.37
2019-03-06T01:38:06.797Z,1002.32
2019-03-06T01:39:06.769Z,1002.34
2019-03-06T01:40:06.863Z,1002.32
2019-03-06T01:41:06.782Z,1002.31
2019-03-06T01:43:06.661Z,1002.28
2019-03-06T01:44:06.960Z,1002.31
2019-03-06T01:45:06.825Z,1002.34
2019-03-06T01:47:06.563Z,1002.30
2019-03-06T01:48:06.561Z,1002.32
2019-03-06T01:49:06.510Z,1002.30
2019-03-06T01:50:06.816Z,1002.28
2019-03-06T01:51:06.457Z,1002.31
2019-03-06T01:52:06.425Z,1002.30
2019-03-06T01:53:06.452Z,1002.32
2019-03-06T01:54:06.376Z,1002.30
2019-03-06T01:55:06.362Z,1002.27
2019-03-06T01:56:06.745Z,1002.27
2019-03-06T01:57:06.295Z,1002.25
2019-03-06T01:58:06.277Z,1002.28
2019-03-06T01:59:06.245Z,1002.28
2019-03-06T02:00:06.220Z,1002.24
2019-03-06T02:01:06.193Z,1002.21
2019-03-06T02:02:06.657Z,1002.24
2019-03-06T02:03:06.275Z,1002.25
2019-03-06T02:04:06.242Z,1002.26
2019-03-06T02:05:06.193Z,1002.27
2019-03-06T02:06:06.170Z,1002.27
2019-03-06T02:07:06.237Z,1002.31
2019-03-06T02:08:06.434Z,1002.26
2019-03-06T02:09:06.099Z,1002.27
2019-03-06T02:10:06.085Z,1002.25
2019-03-06T02:11:06.035Z,1002.28
2019-03-06T02:12:05.899Z,1002.28
2019-03-06T02:13:05.880Z,1002.25
2019-03-06T02:14:06.147Z,1002.29
2019-03-06T02:17:05.774Z,1002.18
2019-03-06T02:18:05.748Z,1002.20
2019-03-06T02:19:05.841Z,1002.17
2019-03-06T02:20:06.067Z,1002.18
2019-03-06T02:21:05.666Z,1002.15
2019-03-06T02:22:05.638Z,1002.10
2019-03-06T02:23:05.617Z,1002.09
2019-03-06T02:24:05.582Z,1002.12
2019-03-06T02:25:05.575Z,1002.11
2019-03-06T02:26:05.531Z,1002.11
2019-03-06T02:27:05.805Z,1002.13
2019-03-06T02:28:05.506Z,1002.09
2019-03-06T02:29:05.511Z,1002.06
2019-03-06T02:31:05.415Z,1002.01
2019-03-06T02:32:05.403Z,1001.98
2019-03-06T02:34:05.623Z,1002.04
2019-03-06T02:35:05.449Z,1002.00
2019-03-06T02:36:05.298Z,1002.02
2019-03-06T02:37:05.344Z,1001.98
2019-03-06T02:38:05.296Z,1001.97
2019-03-06T02:39:05.193Z,1001.96
2019-03-06T02:40:05.174Z,1002.02
2019-03-06T02:41:05.525Z,1001.98
2019-03-06T02:42:05.335Z,1001.97
2019-03-06T02:43:05.093Z,1001.95
2019-03-06T02:44:05.078Z,1001.99
2019-03-06T02:45:05.522Z,1001.98
2019-03-06T02:46:05.042Z,1001.97
2019-03-06T02:47:05.040Z,1001.95
2019-03-06T02:48:05.262Z,1001.90
2019-03-06T02:49:05.040Z,1001.91
2019-03-06T02:50:04.985Z,1001.93
2019-03-06T02:51:04.964Z,1001.92
2019-03-06T02:52:04.874Z,1001.91
2019-03-06T02:54:04.878Z,1001.92
2019-03-06T02:55:05.081Z,1001.95
2019-03-06T02:56:04.765Z,1001.97
2019-03-06T02:57:04.782Z,1001.99
2019-03-06T02:58:04.855Z,1001.93
2019-03-06T02:59:04.836Z,1001.94
2019-03-06T03:00:04.801Z,1001.94
2019-03-06T03:02:05.133Z,1001.92
2019-03-06T03:03:04.661Z,1001.95
2019-03-06T03:04:04.700Z,1001.94
2019-03-06T03:05:04.655Z,1001.95
2019-03-06T03:06:04.577Z,1001.95
2019-03-06T03:07:04.543Z,1001.93
2019-03-06T03:08:04.744Z,1001.94
2019-03-06T03:10:04.390Z,1001.90
2019-03-06T03:12:04.331Z,1001.90
2019-03-06T03:13:04.382Z,1001.94
2019-03-06T03:14:04.624Z,1001.89
2019-03-06T03:15:04.326Z,1001.95
2019-03-06T03:16:04.213Z,1001.91
2019-03-06T03:17:04.191Z,1001.93
2019-03-06T03:19:04.164Z,1001.94
2019-03-06T03:20:04.110Z,1001.89
2019-03-06T03:21:04.386Z,1001.92
2019-03-06T03:22:04.057Z,1001.86
2019-03-06T03:23:04.110Z,1001.84
2019-03-06T03:24:04.008Z,1001.81
2019-03-06T03:25:03.983Z,1001.79
2019-03-06T03:27:04.275Z,1001.81
2019-03-06T03:28:03.899Z,1001.81
2019-03-06T03:29:03.896Z,1001.79
2019-03-06T03:30:03.858Z,1001.78
2019-03-06T03:31:04.152Z,1001.79
2019-03-06T03:32:03.898Z,1001.75
2019-03-06T03:34:03.740Z,1001.76
2019-03-06T03:35:03.787Z,1001.76
2019-03-06T03:36:03.764Z,1001.75
2019-03-06T03:37:03.734Z,1001.69
2019-03-06T03:38:03.706Z,1001.72
2019-03-06T03:39:03.915Z,1001.66
2019-03-06T03:40:03.585Z,1001.63
2019-03-06T03:41:03.612Z,1001.71
2019-03-06T03:42:03.549Z,1001.64
2019-03-06T03:43:03.515Z,1001.66
2019-03-06T03:44:03.475Z,1001.63
2019-03-06T03:45:03.449Z,1001.65
2019-03-06T03:46:03.728Z,1001.66
2019-03-06T03:47:03.395Z,1001.65
2019-03-06T03:48:03.513Z,1001.67
2019-03-06T03:49:03.477Z,1001.71
2019-03-06T03:52:03.379Z,1001.72
2019-03-06T03:53:03.654Z,1001.70
2019-03-06T03:54:03.331Z,1001.71
2019-03-06T03:55:03.306Z,1001.69
2019-03-06T03:56:03.272Z,1001.67
2019-03-06T03:57:03.243Z,1001.68
2019-03-06T03:58:03.199Z,1001.69
2019-03-06T03:59:03.084Z,1001.71
2019-03-06T04:00:03.383Z,1001.70
2019-03-06T04:02:03.088Z,1001.71
2019-03-06T04:03:02.998Z,1001.74
2019-03-06T04:04:02.956Z,1001.74
2019-03-06T04:05:02.996Z,1001.71
2019-03-06T04:06:02.897Z,1001.68
2019-03-06T04:07:03.175Z,1001.71
2019-03-06T04:08:02.866Z,1001.74
2019-03-06T04:09:02.822Z,1001.72
2019-03-06T04:10:02.919Z,1001.70
2019-03-06T04:12:02.848Z,1001.66
2019-03-06T04:13:02.915Z,1001.62
2019-03-06T04:17:03.096Z,1001.55
2019-03-06T04:18:02.779Z,1001.51
2019-03-06T04:19:03.266Z,1001.53
2019-03-06T04:20:02.664Z,1001.47
2019-03-06T04:21:02.502Z,1001.48
2019-03-06T04:22:02.614Z,1001.46
2019-03-06T04:23:02.645Z,1001.45
2019-03-06T04:24:02.846Z,1001.44
2019-03-06T04:25:02.509Z,1001.43
2019-03-06T04:26:02.484Z,1001.40
2019-03-06T04:28:02.434Z,1001.45
2019-03-06T04:29:02.408Z,1001.45
2019-03-06T04:30:02.761Z,1001.42
2019-03-06T04:31:02.367Z,1001.39
2019-03-06T04:32:02.325Z,1001.43
2019-03-06T04:33:02.302Z,1001.44
2019-03-06T04:34:02.173Z,1001.45
2019-03-06T04:35:02.191Z,1001.46
2019-03-06T04:36:02.629Z,1001.47
2019-03-06T04:37:02.090Z,1001.41
2019-03-06T04:39:02.149Z,1001.46
2019-03-06T04:40:02.021Z,1001.47
2019-03-06T04:41:02.008Z,1001.44
2019-03-06T04:42:02.262Z,1001.44
2019-03-06T04:43:01.931Z,1001.44
2019-03-06T04:44:02.012Z,1001.44
2019-03-06T04:45:02.047Z,1001.43
2019-03-06T04:46:02.865Z,1001.42
2019-03-06T04:47:01.827Z,1001.41
2019-03-06T04:48:02.109Z,1001.38
2019-03-06T04:49:01.783Z,1001.38
2019-03-06T04:50:01.770Z,1001.39
2019-03-06T04:51:01.734Z,1001.39
2019-03-06T04:52:01.832Z,1001.40
2019-03-06T04:53:01.695Z,1001.42
2019-03-06T04:54:02.341Z,1001.44
2019-03-06T04:55:01.705Z,1001.47
2019-03-06T04:56:01.609Z,1001.42
2019-03-06T04:57:01.644Z,1001.44
2019-03-06T04:58:01.623Z,1001.40
2019-03-06T04:59:01.508Z,1001.39
2019-03-06T05:00:01.806Z,1001.35
2019-03-06T05:01:01.459Z,1001.40
2019-03-06T05:02:01.452Z,1001.35
2019-03-06T05:03:01.418Z,1001.34
2019-03-06T05:04:01.384Z,1001.30
2019-03-06T05:05:01.463Z,1001.30
2019-03-06T05:06:01.769Z,1001.31
2019-03-06T05:07:01.306Z,1001.28
2019-03-06T05:08:01.279Z,1001.27
2019-03-06T05:09:03.002Z,1001.27
2019-03-06T05:10:01.286Z,1001.24
2019-03-06T05:11:01.213Z,1001.19
2019-03-06T05:12:01.187Z,1001.22
2019-03-06T05:13:01.449Z,1001.22
2019-03-06T05:14:01.129Z,1001.23
2019-03-06T05:15:01.231Z,1001.26
2019-03-06T05:16:01.079Z,1001.26
2019-03-06T05:17:01.053Z,1001.24
2019-03-06T05:18:01.033Z,1001.30
2019-03-06T05:19:01.003Z,1001.27
2019-03-06T05:20:01.306Z,1001.29
2019-03-06T05:21:00.978Z,1001.25
2019-03-06T05:22:01.068Z,1001.27
2019-03-06T05:23:00.999Z,1001.27
2019-03-06T05:24:00.863Z,1001.27
2019-03-06T05:25:00.876Z,1001.29
2019-03-06T05:26:00.868Z,1001.25
2019-03-06T05:27:01.140Z,1001.28
2019-03-06T05:28:00.904Z,1001.23
2019-03-06T05:29:00.946Z,1001.20
2019-03-06T05:30:00.905Z,1001.16
2019-03-06T05:31:00.945Z,1001.13
2019-03-06T05:32:00.823Z,1001.18
2019-03-06T05:33:00.740Z,1001.13
2019-03-06T05:34:01.108Z,1001.10
2019-03-06T05:35:00.757Z,1001.13
2019-03-06T05:36:00.580Z,1001.08
2019-03-06T05:37:00.586Z,1001.12
2019-03-06T05:38:00.559Z,1001.09
2019-03-06T05:39:00.607Z,1001.13
2019-03-06T05:40:00.557Z,1001.14
2019-03-06T05:41:00.820Z,1001.13
2019-03-06T05:42:00.474Z,1001.15
2019-03-06T05:43:00.376Z,1001.17
2019-03-06T05:44:00.403Z,1001.15
2019-03-06T05:45:00.430Z,1001.15
2019-03-06T05:46:00.415Z,1001.15
2019-03-06T05:48:00.622Z,1001.15
2019-03-06T05:49:00.335Z,1001.13
2019-03-06T05:50:00.318Z,1001.11
2019-03-06T05:51:00.322Z,1001.10
2019-03-06T05:52:00.528Z,1001.13
2019-03-06T05:53:00.110Z,1001.09
2019-03-06T05:54:00.456Z,1001.08
2019-03-06T05:55:00.340Z,1001.10
2019-03-06T05:56:06.307Z,1001.05
2019-03-06T05:57:00.356Z,1001.05
2019-03-06T05:59:00.017Z,1000.97
2019-03-06T06:00:00.333Z,1000.94
2019-03-06T06:00:59.916Z,1000.97
2019-03-06T06:01:59.983Z,1000.91
2019-03-06T06:03:00.030Z,1000.88
2019-03-06T06:03:59.910Z,1000.88
2019-03-06T06:04:59.964Z,1000.88
2019-03-06T06:06:59.868Z,1000.87
2019-03-06T06:07:59.870Z,1000.88
2019-03-06T06:08:59.856Z,1000.80
2019-03-06T06:09:59.880Z,1000.84
2019-03-06T06:10:59.886Z,1000.83
2019-03-06T06:12:00.087Z,1000.79
2019-03-06T06:13:06.085Z,1000.79
2019-03-06T06:13:59.990Z,1000.78
2019-03-06T06:14:59.597Z,1000.78
2019-03-06T06:15:59.601Z,1000.78
2019-03-06T06:16:59.509Z,1000.75
2019-03-06T06:17:59.777Z,1000.76
2019-03-06T06:19:59.735Z,1000.76
2019-03-06T06:20:59.661Z,1000.75
2019-03-06T06:21:59.611Z,1000.76
2019-03-06T06:24:00.837Z,1000.75
2019-03-06T06:24:59.474Z,1000.78
2019-03-06T06:25:59.692Z,1000.75
2019-03-06T06:26:59.596Z,1000.79
2019-03-06T06:27:59.365Z,1000.78
2019-03-06T06:28:59.854Z,1000.82
2019-03-06T06:30:00.248Z,1000.84
2019-03-06T06:31:05.024Z,1000.78
2019-03-06T06:31:59.771Z,1000.76
2019-03-06T06:32:59.207Z,1000.73
2019-03-06T06:33:59.342Z,1000.77
2019-03-06T06:35:00.419Z,1000.72
2019-03-06T06:36:01.492Z,1000.75
2019-03-06T06:36:59.343Z,1000.74
2019-03-06T06:38:00.060Z,1000.68
2019-03-06T06:38:59.065Z,1000.72
2019-03-06T06:39:59.089Z,1000.64
2019-03-06T06:40:59.112Z,1000.66
2019-03-06T06:41:59.399Z,1000.61
2019-03-06T06:42:58.958Z,1000.66
2019-03-06T06:43:58.961Z,1000.61
2019-03-06T06:44:58.876Z,1000.63
2019-03-06T06:46:58.749Z,1000.63
2019-03-06T06:47:59.023Z,1000.60
2019-03-06T06:48:58.706Z,1000.60
2019-03-06T06:49:58.678Z,1000.52
2019-03-06T06:51:02.172Z,1000.52
2019-03-06T06:51:58.688Z,1000.57
2019-03-06T06:52:58.769Z,1000.54
2019-03-06T06:53:58.874Z,1000.53
2019-03-06T06:54:58.747Z,1000.52
2019-03-06T06:55:58.531Z,1000.50
2019-03-06T06:56:58.607Z,1000.42
2019-03-06T06:57:59.077Z,1000.45
2019-03-06T06:58:58.578Z,1000.43
2019-03-06T06:59:58.860Z,1000.51
2019-03-06T07:00:58.511Z,1000.46
2019-03-06T07:01:58.490Z,1000.40
2019-03-06T07:02:58.362Z,1000.45
2019-03-06T07:03:58.337Z,1000.42
2019-03-06T07:04:58.522Z,1000.42
2019-03-06T07:05:58.733Z,1000.42
2019-03-06T07:06:58.433Z,1000.42
2019-03-06T07:07:58.661Z,1000.42
2019-03-06T07:08:58.214Z,1000.38
2019-03-06T07:09:58.187Z,1000.40
2019-03-06T07:10:58.268Z,1000.41
2019-03-06T07:11:58.436Z,1000.39
2019-03-06T07:12:58.219Z,1000.40
2019-03-06T07:13:58.090Z,1000.41
2019-03-06T07:14:58.122Z,1000.42
2019-03-06T07:15:58.103Z,1000.41
2019-03-06T07:16:58.201Z,1000.42
2019-03-06T07:17:58.294Z,1000.40
2019-03-06T07:18:57.962Z,1000.43
2019-03-06T07:19:57.995Z,1000.37
2019-03-06T07:21:57.930Z,1000.35
2019-03-06T07:22:57.872Z,1000.41
2019-03-06T07:23:58.971Z,1000.39
2019-03-06T07:24:58.514Z,1000.38
2019-03-06T07:25:59.779Z,1000.40
2019-03-06T07:26:58.049Z,1000.36
2019-03-06T07:27:57.865Z,1000.35
2019-03-06T07:28:57.863Z,1000.36
2019-03-06T07:29:58.132Z,1000.37
2019-03-06T07:30:57.784Z,1000.37
2019-03-06T07:31:57.965Z,1000.41
2019-03-06T07:32:57.752Z,1000.33
2019-03-06T07:33:57.709Z,1000.32
2019-03-06T07:34:57.689Z,1000.32
2019-03-06T07:35:58.026Z,1000.33
2019-03-06T07:36:57.651Z,1000.31
2019-03-06T07:38:57.608Z,1000.23
2019-03-06T07:39:57.562Z,1000.24
2019-03-06T07:40:58.023Z,1000.22
2019-03-06T07:41:58.813Z,1000.22
2019-03-06T07:42:57.700Z,1000.19
2019-03-06T07:43:57.508Z,1000.20
2019-03-06T07:44:57.463Z,1000.16
2019-03-06T07:45:57.464Z,1000.15
2019-03-06T07:46:57.406Z,1000.17
2019-03-06T07:47:57.569Z,1000.17
2019-03-06T07:48:57.272Z,1000.08
2019-03-06T07:49:57.560Z,1000.13
2019-03-06T07:50:57.297Z,1000.15
2019-03-06T07:51:57.218Z,1000.11
2019-03-06T07:52:57.213Z,1000.11
2019-03-06T07:53:57.434Z,1000.18
2019-03-06T07:54:57.495Z,1000.15
2019-03-06T07:55:57.095Z,1000.13
2019-03-06T07:56:59.235Z,1000.12
2019-03-06T07:57:57.108Z,1000.14
2019-03-06T07:58:57.415Z,1000.18
2019-03-06T08:00:57.085Z,1000.17
2019-03-06T08:01:58.512Z,1000.16
2019-03-06T08:02:57.105Z,1000.17
2019-03-06T08:03:57.077Z,1000.14
2019-03-06T08:04:57.326Z,1000.18
2019-03-06T08:06:00.023Z,1000.14
2019-03-06T08:06:56.928Z,1000.12
2019-03-06T08:07:56.909Z,1000.11
2019-03-06T08:08:56.880Z,1000.05
2019-03-06T08:09:57.115Z,1000.04
2019-03-06T08:10:56.787Z,1000.04
2019-03-06T08:11:56.999Z,999.99
2019-03-06T08:12:56.711Z,999.94
2019-03-06T08:13:57.040Z,999.97
2019-03-06T08:14:56.747Z,999.95
2019-03-06T08:15:56.694Z,999.92
2019-03-06T08:16:56.846Z,999.94
2019-03-06T08:17:57.652Z,999.93
2019-03-06T08:18:56.553Z,999.95
2019-03-06T08:19:56.998Z,999.93
2019-03-06T08:20:56.539Z,999.89
2019-03-06T08:21:56.479Z,999.86
2019-03-06T08:22:58.573Z,999.92
2019-03-06T08:23:56.887Z,999.87
2019-03-06T08:24:56.579Z,999.77
2019-03-06T08:25:56.705Z,999.76
2019-03-06T08:26:57.183Z,999.69
2019-03-06T08:28:56.326Z,999.73
2019-03-06T08:30:56.669Z,999.70
2019-03-06T08:31:56.302Z,999.70
2019-03-06T08:32:56.894Z,999.69
2019-03-06T08:34:56.263Z,999.67
2019-03-06T08:35:56.584Z,999.70
2019-03-06T08:36:57.067Z,999.68
2019-03-06T08:37:56.420Z,999.70
2019-03-06T08:38:56.740Z,999.65
2019-03-06T08:39:56.325Z,999.67
2019-03-06T08:41:04.036Z,999.68
2019-03-06T08:42:56.368Z,999.63
2019-03-06T08:43:55.975Z,999.67
2019-03-06T08:44:56.210Z,999.70
2019-03-06T08:45:55.935Z,999.67
2019-03-06T08:46:56.412Z,999.65
2019-03-06T08:47:56.007Z,999.67
2019-03-06T08:48:56.195Z,999.64
2019-03-06T08:50:55.827Z,999.59
2019-03-06T08:52:55.942Z,999.59
2019-03-06T08:53:55.848Z,999.58
2019-03-06T08:54:56.049Z,999.57
2019-03-06T08:55:55.731Z,999.62
2019-03-06T08:56:56.275Z,999.64
2019-03-06T08:57:55.707Z,999.62
2019-03-06T08:58:55.702Z,999.61
2019-03-06T08:59:56.076Z,999.58
2019-03-06T09:00:55.941Z,999.52
2019-03-06T09:02:00.458Z,999.59
2019-03-06T09:02:55.572Z,999.52
2019-03-06T09:03:55.659Z,999.57
2019-03-06T09:04:55.590Z,999.54
2019-03-06T09:05:55.513Z,999.56
2019-03-06T09:06:55.896Z,999.50
2019-03-06T09:07:55.692Z,999.51
2019-03-06T09:08:55.869Z,999.57
2019-03-06T09:09:55.539Z,999.58
2019-03-06T09:11:02.524Z,999.55
2019-03-06T09:12:55.915Z,999.62
2019-03-06T09:13:55.327Z,999.55
2019-03-06T09:14:55.304Z,999.53
2019-03-06T09:15:55.432Z,999.58
2019-03-06T09:16:55.334Z,999.57
2019-03-06T09:17:55.266Z,999.53
2019-03-06T09:18:55.540Z,999.51
2019-03-06T09:19:55.214Z,999.46
2019-03-06T09:20:55.350Z,999.51
2019-03-06T09:21:55.222Z,999.38
2019-03-06T09:22:55.194Z,999.39
2019-03-06T09:23:55.124Z,999.46
2019-03-06T09:24:55.407Z,999.41
2019-03-06T09:25:55.086Z,999.41
2019-03-06T09:26:55.179Z,999.41
2019-03-06T09:29:55.632Z,999.37
2019-03-06T09:30:55.285Z,999.39
2019-03-06T09:31:54.942Z,999.38
2019-03-06T09:32:55.287Z,999.39
2019-03-06T09:33:54.988Z,999.32
2019-03-06T09:34:55.000Z,999.32
2019-03-06T09:35:55.085Z,999.36
2019-03-06T09:36:55.244Z,999.37
2019-03-06T09:37:54.987Z,999.33
2019-03-06T09:38:54.836Z,999.34
2019-03-06T09:39:54.795Z,999.36
2019-03-06T09:40:54.895Z,999.39
2019-03-06T09:41:54.866Z,999.32
2019-03-06T09:42:55.059Z,999.29
2019-03-06T09:43:54.730Z,999.34
2019-03-06T09:44:55.286Z,999.37
2019-03-06T09:45:54.706Z,999.37
2019-03-06T09:46:54.658Z,999.32
2019-03-06T09:47:54.837Z,999.37
2019-03-06T09:48:54.922Z,999.26
2019-03-06T09:49:54.602Z,999.20
2019-03-06T09:50:54.588Z,999.19
2019-03-06T09:52:54.535Z,999.16
2019-03-06T09:53:54.566Z,999.13
2019-03-06T09:54:55.156Z,999.19
2019-03-06T09:55:54.471Z,999.17
2019-03-06T09:56:54.539Z,999.13
2019-03-06T09:57:54.581Z,999.07
2019-03-06T09:58:54.473Z,999.07
2019-03-06T09:59:54.448Z,999.11
2019-03-06T10:00:55.030Z,999.19
2019-03-06T10:01:54.429Z,999.13
2019-03-06T10:02:54.437Z,999.12
2019-03-06T10:03:54.302Z,999.10
2019-03-06T10:04:54.308Z,999.12
2019-03-06T10:05:54.315Z,999.11
2019-03-06T10:06:54.605Z,999.07
2019-03-06T10:07:54.264Z,998.97
2019-03-06T10:08:54.363Z,998.96
2019-03-06T10:09:59.149Z,998.90
2019-03-06T10:10:57.867Z,998.98
2019-03-06T10:11:55.576Z,998.95
2019-03-06T10:12:54.439Z,998.94
2019-03-06T10:13:54.936Z,999.00
2019-03-06T10:14:54.380Z,998.97
2019-03-06T10:16:54.270Z,998.98
2019-03-06T10:17:54.094Z,998.91
2019-03-06T10:18:54.342Z,998.82
2019-03-06T10:19:54.011Z,998.89
2019-03-06T10:20:54.062Z,999.04
2019-03-06T10:21:54.763Z,999.01
2019-03-06T10:22:54.940Z,999.06
2019-03-06T10:23:53.930Z,999.07
2019-03-06T10:24:55.707Z,998.99
2019-03-06T10:25:53.895Z,999.04
2019-03-06T10:26:53.898Z,998.92
2019-03-06T10:27:53.862Z,998.90
2019-03-06T10:28:53.937Z,998.86
2019-03-06T10:29:53.916Z,998.78
2019-03-06T10:31:53.806Z,998.61
2019-03-06T10:32:53.784Z,998.75
2019-03-06T10:33:53.846Z,998.69
2019-03-06T10:34:55.105Z,998.72
2019-03-06T10:35:53.776Z,998.60
2019-03-06T10:36:54.020Z,998.57
2019-03-06T10:37:53.690Z,998.53
2019-03-06T10:38:53.740Z,998.55
2019-03-06T10:39:53.681Z,998.40
2019-03-06T10:40:53.648Z,998.40
2019-03-06T10:41:53.777Z,998.43
2019-03-06T10:42:54.040Z,998.39
2019-03-06T10:43:53.764Z,998.43
2019-03-06T10:44:53.713Z,998.38
2019-03-06T10:45:53.651Z,998.42
2019-03-06T10:46:53.565Z,998.36
2019-03-06T10:47:53.573Z,998.37
2019-03-06T10:49:53.489Z,998.33
2019-03-06T10:50:53.484Z,998.34
2019-03-06T10:51:53.446Z,998.36
2019-03-06T10:52:53.441Z,998.35
2019-03-06T10:53:53.474Z,998.47
2019-03-06T10:54:53.703Z,998.47
2019-03-06T10:55:53.501Z,998.45
2019-03-06T10:56:53.455Z,998.38
2019-03-06T10:57:53.466Z,998.40
2019-03-06T10:59:53.370Z,998.36
2019-03-06T11:00:53.596Z,998.32
2019-03-06T11:01:53.261Z,998.31
2019-03-06T11:02:53.246Z,998.26
2019-03-06T11:03:53.232Z,998.19
2019-03-06T11:04:53.213Z,998.20
2019-03-06T11:05:53.205Z,998.22
2019-03-06T11:06:53.495Z,998.21
2019-03-06T11:07:53.179Z,998.17
2019-03-06T11:08:53.490Z,998.22
2019-03-06T11:09:53.136Z,998.18
2019-03-06T11:10:53.120Z,998.19
2019-03-06T11:11:53.146Z,998.24
2019-03-06T11:12:53.375Z,998.18
2019-03-06T11:13:53.259Z,998.16
2019-03-06T11:14:53.151Z,998.24
2019-03-06T11:15:55.957Z,998.11
2019-03-06T11:17:53.327Z,998.06
2019-03-06T11:18:53.390Z,998.11
2019-03-06T11:19:53.063Z,998.11
2019-03-06T11:20:53.041Z,998.06
2019-03-06T11:21:52.997Z,998.01
2019-03-06T11:22:53.041Z,998.09
2019-03-06T11:23:55.991Z,998.08
2019-03-06T11:24:54.644Z,998.05
2019-03-06T11:25:52.859Z,997.99
2019-03-06T11:26:52.847Z,997.94
2019-03-06T11:27:52.879Z,997.92
2019-03-06T11:28:52.873Z,997.94
2019-03-06T11:29:52.901Z,997.91
2019-03-06T11:30:53.902Z,997.84
2019-03-06T11:31:52.895Z,997.89
2019-03-06T11:32:54.558Z,997.75
2019-03-06T11:33:52.770Z,997.77
2019-03-06T11:34:52.773Z,997.80
2019-03-06T11:35:52.754Z,997.69
2019-03-06T11:36:52.986Z,997.70
2019-03-06T11:37:52.674Z,997.62
2019-03-06T11:38:52.694Z,997.59
2019-03-06T11:39:52.667Z,997.53
2019-03-06T11:40:52.670Z,997.53
2019-03-06T11:41:52.827Z,997.41
2019-03-06T11:42:52.888Z,997.44
2019-03-06T11:43:52.630Z,997.41
2019-03-06T11:44:52.561Z,997.46
2019-03-06T11:46:53.100Z,997.46
2019-03-06T11:47:52.815Z,997.32
2019-03-06T11:48:52.872Z,997.39
2019-03-06T11:49:52.519Z,997.33
2019-03-06T11:50:52.792Z,997.34
2019-03-06T11:51:52.501Z,997.30
2019-03-06T11:52:52.457Z,997.26
2019-03-06T11:53:52.468Z,997.26
2019-03-06T11:54:52.755Z,997.28
2019-03-06T11:55:52.419Z,997.17
2019-03-06T11:56:52.389Z,997.25
2019-03-06T11:57:52.754Z,997.11
2019-03-06T11:58:52.335Z,997.11
2019-03-06T11:59:52.381Z,997.08
2019-03-06T12:00:52.668Z,997.08
2019-03-06T12:01:52.302Z,997.05
2019-03-06T12:02:52.341Z,997.04
2019-03-06T12:03:52.334Z,996.95
2019-03-06T12:04:52.246Z,996.90
2019-03-06T12:05:52.592Z,996.85
2019-03-06T12:06:52.558Z,996.81
2019-03-06T12:07:52.264Z,996.84
2019-03-06T12:08:52.187Z,996.78
2019-03-06T12:09:52.295Z,996.79
2019-03-06T12:10:52.151Z,996.67
2019-03-06T12:11:52.114Z,996.75
2019-03-06T12:12:52.415Z,996.77
2019-03-06T12:13:52.099Z,996.75
2019-03-06T12:14:52.092Z,996.78
2019-03-06T12:15:52.070Z,996.86
2019-03-06T12:16:52.063Z,996.73
2019-03-06T12:17:52.068Z,996.73
2019-03-06T12:18:52.303Z,996.69
2019-03-06T12:19:52.053Z,996.74
2019-03-06T12:20:52.021Z,996.68
2019-03-06T12:21:52.971Z,996.66
2019-03-06T12:23:52.444Z,996.67
2019-03-06T12:25:52.029Z,996.63
2019-03-06T12:26:51.972Z,996.58
2019-03-06T12:27:52.317Z,996.57
2019-03-06T12:28:52.124Z,996.59
2019-03-06T12:29:52.096Z,996.46
2019-03-06T12:30:52.116Z,996.45
2019-03-06T12:31:52.081Z,996.41
2019-03-06T12:32:51.782Z,996.41
2019-03-06T12:33:51.752Z,996.29
2019-03-06T12:34:52.578Z,996.42
2019-03-06T12:35:51.725Z,996.33
2019-03-06T12:36:51.996Z,996.35
2019-03-06T12:37:51.787Z,996.29
2019-03-06T12:40:51.714Z,996.25
2019-03-06T12:41:51.609Z,996.27
2019-03-06T12:42:51.904Z,996.21
2019-03-06T12:43:51.700Z,996.21
2019-03-06T12:44:51.671Z,996.13
2019-03-06T12:45:51.949Z,996.07
2019-03-06T12:46:52.182Z,996.09
2019-03-06T12:47:55.452Z,996.03
2019-03-06T12:48:52.290Z,995.95
2019-03-06T12:49:51.790Z,995.89
2019-03-06T12:50:56.063Z,995.87
2019-03-06T12:51:54.564Z,995.83
2019-03-06T12:52:51.600Z,995.78
2019-03-06T12:53:52.268Z,995.78
2019-03-06T12:54:53.074Z,995.79
2019-03-06T12:55:51.885Z,995.66
2019-03-06T12:57:59.123Z,995.73
2019-03-06T12:58:51.588Z,995.74
2019-03-06T12:59:51.400Z,995.73
2019-03-06T13:00:51.587Z,995.73
2019-03-06T13:01:51.264Z,995.71
2019-03-06T13:02:51.248Z,995.69
2019-03-06T13:03:51.229Z,995.67
2019-03-06T13:04:53.357Z,995.70
2019-03-06T13:05:51.313Z,995.63
2019-03-06T13:06:51.536Z,995.61
2019-03-06T13:07:51.166Z,995.55
2019-03-06T13:08:51.335Z,995.52
2019-03-06T13:09:51.118Z,995.51